Time;durP1;ratioP1;P1;durP2;ratioP2;P2;SDS_P1;SDS_P2;PMS_P1;PMS_P2;Temp;Humidity;BMP_temperature;BMP_pressure;BME280_temperature;BME280_humidity;BME280_pressure;Samples;Min_cycle;Max_cycle;Signal;HPM_P1;HPM_P2
2022/10/21 00:01:08;;;;;;;34.83;18.88;;;12.00;99.90;;;;;;5008507;28;20042;-80
2022/10/21 00:03:35;;;;;;;37.97;19.13;;;11.90;99.90;;;;;;5005403;28;20037;-80
2022/10/21 00:06:01;;;;;;;38.83;19.63;;;11.90;99.90;;;;;;4985839;28;20112;-80
2022/10/21 00:08:27;;;;;;;39.28;20.90;;;11.90;99.90;;;;;;5003947;28;20046;-80
2022/10/21 00:10:58;;;;;;;36.28;19.23;;;11.90;99.90;;;;;;5000463;28;20038;-80
2022/10/21 00:13:26;;;;;;;39.25;20.40;;;11.90;99.90;;;;;;4991890;28;20079;-80
2022/10/21 00:16:01;;;;;;;38.20;20.50;;;11.90;99.90;;;;;;4986663;28;20053;-80
2022/10/21 00:18:28;;;;;;;43.67;20.73;;;11.90;99.90;;;;;;4999292;28;20103;-79
2022/10/21 00:20:53;;;;;;;39.80;20.55;;;11.90;99.90;;;;;;5003981;28;20045;-79
2022/10/21 00:23:19;;;;;;;43.77;20.10;;;11.90;99.90;;;;;;5003662;28;20034;-79
2022/10/21 00:25:45;;;;;;;37.92;20.08;;;11.90;99.90;;;;;;4994343;28;20060;-79
2022/10/21 00:28:10;;;;;;;37.27;19.23;;;11.90;99.90;;;;;;4987819;28;20397;-80
2022/10/21 00:30:40;;;;;;;38.97;18.73;;;11.90;99.90;;;;;;5003397;28;20296;-80
2022/10/21 00:33:06;;;;;;;40.13;20.05;;;11.80;99.90;;;;;;4988792;28;20045;-80
2022/10/21 00:35:33;;;;;;;41.20;18.83;;;11.90;99.90;;;;;;4992672;28;20045;-80
2022/10/21 00:37:58;;;;;;;39.67;20.77;;;11.80;99.90;;;;;;4984705;28;20034;-80
2022/10/21 00:40:24;;;;;;;38.30;20.47;;;11.80;99.90;;;;;;5010466;28;20041;-80
2022/10/21 00:42:50;;;;;;;37.80;19.93;;;11.80;99.90;;;;;;4987294;28;20490;-80
2022/10/21 00:45:23;;;;;;;36.23;19.27;;;11.80;99.90;;;;;;4998533;28;20286;-80
2022/10/21 00:48:00;;;;;;;45.17;20.92;;;11.80;99.90;;;;;;4986118;28;20765;-80
2022/10/21 00:50:34;;;;;;;;;;;11.80;99.90;;;;;;5003942;28;20084;-80
2022/10/21 00:53:02;;;;;;;35.85;17.85;;;11.80;99.90;;;;;;4991738;28;19925;-80
2022/10/21 00:55:32;;;;;;;40.63;20.35;;;11.80;99.90;;;;;;5001026;28;20048;-80
2022/10/21 00:57:59;;;;;;;45.05;20.33;;;11.80;99.90;;;;;;5005240;28;20042;-80
2022/10/21 01:00:25;;;;;;;38.13;18.92;;;11.80;99.90;;;;;;4971433;28;20034;-79
2022/10/21 01:02:50;;;;;;;38.33;19.23;;;11.80;99.90;;;;;;5001236;28;20040;-80
2022/10/21 01:05:17;;;;;;;39.45;19.92;;;11.80;99.90;;;;;;4973425;28;20465;-80
2022/10/21 01:07:45;;;;;;;;;;;11.80;99.90;;;;;;4992698;28;20041;-80
2022/10/21 01:10:10;;;;;;;44.80;20.95;;;11.70;99.90;;;;;;4996317;28;20381;-80
2022/10/21 01:13:00;;;;;;;40.47;19.35;;;11.70;99.90;;;;;;4984693;28;20118;-80
2022/10/21 01:15:43;;;;;;;37.88;19.98;;;11.70;99.90;;;;;;5017800;28;20121;-80
2022/10/21 01:18:17;;;;;;;39.30;20.40;;;11.60;99.90;;;;;;5001745;28;20494;-80
2022/10/21 01:21:04;;;;;;;44.47;20.67;;;11.60;99.90;;;;;;4995995;28;20553;-80
2022/10/21 01:23:50;;;;;;;42.72;21.05;;;11.60;99.90;;;;;;4994769;28;20038;-80
2022/10/21 01:26:25;;;;;;;40.72;21.10;;;11.60;99.90;;;;;;4998264;28;20393;-80
2022/10/21 01:29:12;;;;;;;39.22;19.13;;;11.60;99.90;;;;;;4998939;28;20446;-80
2022/10/21 01:31:45;;;;;;;43.37;19.17;;;11.60;99.90;;;;;;5002488;28;20038;-80
2022/10/21 01:34:26;;;;;;;41.65;19.52;;;11.60;99.90;;;;;;5000808;28;20038;-79
2022/10/21 01:36:52;;;;;;;44.00;20.77;;;11.60;99.90;;;;;;4988552;28;20069;-79
2022/10/21 01:39:17;;;;;;;40.13;20.17;;;11.60;99.90;;;;;;5006386;28;20560;-80
2022/10/21 01:41:52;;;;;;;38.22;18.75;;;11.50;99.90;;;;;;5004946;28;20046;-80
2022/10/21 01:44:33;;;;;;;40.03;20.42;;;11.60;99.90;;;;;;5003308;28;20034;-80
2022/10/21 01:47:18;;;;;;;38.10;19.65;;;11.50;99.90;;;;;;4988020;28;20390;-80
2022/10/21 01:49:46;;;;;;;39.40;20.02;;;11.40;99.90;;;;;;4996861;28;20487;-80
2022/10/21 01:52:15;;;;;;;41.28;20.67;;;11.40;99.90;;;;;;5001999;28;20034;-80
2022/10/21 01:54:44;;;;;;;39.50;19.27;;;11.40;99.90;;;;;;5005395;28;20375;-80
2022/10/21 01:57:13;;;;;;;38.55;19.85;;;11.30;99.90;;;;;;5005351;28;20125;-80
2022/10/21 01:59:41;;;;;;;39.33;18.55;;;11.40;99.90;;;;;;4990753;28;20054;-80
2022/10/21 02:02:09;;;;;;;41.55;20.13;;;11.30;99.90;;;;;;4997540;28;20088;-80
2022/10/21 02:04:38;;;;;;;43.35;20.13;;;11.30;99.90;;;;;;4987692;28;20121;-80
2022/10/21 02:07:04;;;;;;;44.13;20.85;;;11.30;99.90;;;;;;4998589;28;20042;-80
2022/10/21 02:09:30;;;;;;;39.28;20.27;;;11.30;99.90;;;;;;5004459;28;20129;-80
2022/10/21 02:11:58;;;;;;;38.75;20.05;;;11.30;99.90;;;;;;4988474;28;20070;-80
2022/10/21 02:14:50;;;;;;;40.85;19.85;;;11.30;99.90;;;;;;5004284;28;20044;-80
2022/10/21 02:17:18;;;;;;;44.35;21.70;;;11.40;99.90;;;;;;4995778;28;20069;-80
2022/10/21 02:19:45;;;;;;;40.05;19.48;;;11.30;99.90;;;;;;5004387;28;20096;-80
2022/10/21 02:22:15;;;;;;;44.45;21.30;;;11.40;99.90;;;;;;4984874;28;20445;-80
2022/10/21 02:25:05;;;;;;;42.08;20.10;;;11.30;99.90;;;;;;5003883;28;20467;-80
2022/10/21 02:27:30;;;;;;;40.22;19.60;;;11.40;99.90;;;;;;5002144;28;20041;-80
2022/10/21 02:29:58;;;;;;;39.92;20.02;;;11.50;99.90;;;;;;4984554;28;20042;-80
2022/10/21 02:32:54;;;;;;;44.00;21.60;;;11.60;99.90;;;;;;4985285;28;20046;-80
2022/10/21 02:35:22;;;;;;;44.95;20.65;;;11.60;99.90;;;;;;5026605;28;20069;-80
2022/10/21 02:38:17;;;;;;;35.80;19.30;;;11.70;99.90;;;;;;5007128;28;20034;-80
2022/10/21 02:40:48;;;;;;;41.15;20.77;;;11.70;99.90;;;;;;5000305;28;20082;-80
2022/10/21 02:43:26;;;;;;;43.05;20.48;;;11.80;99.90;;;;;;4983115;28;20168;-80
2022/10/21 02:45:57;;;;;;;40.20;20.45;;;11.80;99.90;;;;;;5003383;28;20050;-80
2022/10/21 02:48:23;;;;;;;39.58;20.35;;;11.90;99.90;;;;;;5002232;28;20042;-80
2022/10/21 02:50:49;;;;;;;44.08;20.13;;;11.90;99.90;;;;;;4990093;28;20065;-80
2022/10/21 02:53:15;;;;;;;35.83;18.98;;;11.90;99.90;;;;;;4984855;28;20498;-79
2022/10/21 02:55:41;;;;;;;42.45;20.25;;;12.00;99.90;;;;;;4978613;28;20050;-79
2022/10/21 02:58:06;;;;;;;38.73;19.03;;;12.00;99.90;;;;;;4981741;28;20078;-79
2022/10/21 03:00:32;;;;;;;47.80;19.83;;;12.10;99.90;;;;;;5000949;28;20281;-78
2022/10/21 03:02:58;;;;;;;46.67;20.52;;;12.10;99.90;;;;;;4981289;28;20065;-78
2022/10/21 03:05:24;;;;;;;45.28;20.77;;;12.10;99.90;;;;;;5001286;28;20509;-78
2022/10/21 03:07:50;;;;;;;41.73;21.57;;;12.10;99.90;;;;;;4985325;28;20038;-77
2022/10/21 03:10:15;;;;;;;51.90;22.30;;;12.10;99.90;;;;;;4985527;28;20318;-77
2022/10/21 03:12:41;;;;;;;43.40;20.27;;;12.10;99.90;;;;;;5001139;28;20281;-77
2022/10/21 03:15:07;;;;;;;43.20;20.23;;;12.10;99.90;;;;;;5001844;28;20042;-77
2022/10/21 03:17:33;;;;;;;46.55;21.42;;;12.20;99.90;;;;;;5004014;28;20048;-77
2022/10/21 03:19:59;;;;;;;43.50;20.73;;;12.20;99.90;;;;;;4988161;28;20545;-78
2022/10/21 03:22:24;;;;;;;43.47;21.40;;;12.10;99.90;;;;;;5011914;28;20521;-77
2022/10/21 03:24:50;;;;;;;48.85;21.23;;;12.10;99.90;;;;;;5000825;28;20053;-77
2022/10/21 03:27:16;;;;;;;53.88;21.50;;;12.10;99.90;;;;;;4984863;28;20046;-78
2022/10/21 03:29:41;;;;;;;43.88;21.80;;;12.10;99.90;;;;;;5007064;28;20076;-78
2022/10/21 03:32:07;;;;;;;48.23;21.47;;;12.10;99.90;;;;;;5004239;28;20050;-78
2022/10/21 03:34:32;;;;;;;48.23;21.27;;;12.10;99.90;;;;;;5001829;28;20281;-78
2022/10/21 03:36:58;;;;;;;40.22;20.15;;;12.10;99.90;;;;;;4989845;28;20699;-78
2022/10/21 03:39:24;;;;;;;54.72;21.75;;;12.10;99.90;;;;;;4992811;28;20041;-78
2022/10/21 03:41:49;;;;;;;43.20;19.97;;;12.10;99.90;;;;;;4996020;28;20375;-78
2022/10/21 03:44:15;;;;;;;47.20;22.00;;;12.10;99.90;;;;;;4984853;28;20285;-78
2022/10/21 03:46:41;;;;;;;41.23;20.57;;;12.00;99.90;;;;;;4982551;28;20288;-78
2022/10/21 03:49:08;;;;;;;49.90;21.02;;;12.00;99.90;;;;;;4987021;28;20054;-79
2022/10/21 03:51:34;;;;;;;44.72;21.05;;;12.00;99.90;;;;;;5006353;28;20562;-78
2022/10/21 03:54:00;;;;;;;46.70;21.17;;;12.00;99.90;;;;;;5003113;28;20117;-78
2022/10/21 03:56:25;;;;;;;46.13;20.73;;;12.10;99.90;;;;;;5003749;28;20305;-79
2022/10/21 03:58:51;;;;;;;44.50;20.27;;;12.10;99.90;;;;;;5007586;28;20050;-79
2022/10/21 04:01:17;;;;;;;52.37;22.13;;;12.10;99.90;;;;;;4987798;28;20117;-79
2022/10/21 04:03:42;;;;;;;52.70;21.87;;;12.00;99.90;;;;;;4971077;28;20281;-79
2022/10/21 04:06:08;;;;;;;62.20;23.15;;;12.10;99.90;;;;;;5000319;28;20118;-79
2022/10/21 04:08:34;;;;;;;48.23;21.20;;;12.10;99.90;;;;;;4994617;28;20457;-79
2022/10/21 04:10:59;;;;;;;48.80;21.23;;;12.10;99.90;;;;;;5006644;28;20292;-79
2022/10/21 04:13:25;;;;;;;46.57;20.63;;;12.10;99.90;;;;;;4985337;28;20285;-79
2022/10/21 04:15:57;;;;;;;43.25;19.63;;;12.10;99.90;;;;;;4980544;28;20284;-80
2022/10/21 04:18:23;;;;;;;53.35;21.63;;;12.10;99.90;;;;;;5003805;28;20422;-80
2022/10/21 04:20:48;;;;;;;50.10;21.70;;;12.10;99.90;;;;;;4987234;28;20038;-81
2022/10/21 04:23:14;;;;;;;46.55;21.77;;;12.10;99.90;;;;;;4984413;28;20060;-80
2022/10/21 04:25:43;;;;;;;47.50;20.67;;;12.10;99.90;;;;;;4983249;28;20038;-79
2022/10/21 04:28:09;;;;;;;48.85;21.00;;;12.10;99.90;;;;;;4989128;28;20288;-79
2022/10/21 04:30:34;;;;;;;47.95;20.83;;;12.00;99.90;;;;;;4982359;28;20043;-79
2022/10/21 04:33:00;;;;;;;51.33;20.75;;;12.00;99.90;;;;;;5005755;28;20069;-80
2022/10/21 04:35:26;;;;;;;45.85;20.02;;;12.00;99.90;;;;;;4989505;28;20042;-79
2022/10/21 04:37:51;;;;;;;48.13;21.43;;;12.00;99.90;;;;;;4998404;28;20418;-78
2022/10/21 04:40:17;;;;;;;51.37;20.87;;;12.00;99.90;;;;;;4987927;28;20305;-79
2022/10/21 04:42:49;;;;;;;50.22;22.52;;;12.00;99.90;;;;;;5005187;28;20030;-78
2022/10/21 04:45:18;;;;;;;55.50;22.50;;;12.00;99.90;;;;;;5004585;28;20405;-78
2022/10/21 04:47:44;;;;;;;52.80;23.10;;;12.10;99.90;;;;;;4984307;28;20066;-79
2022/10/21 04:50:10;;;;;;;53.85;22.10;;;12.10;99.90;;;;;;4983609;28;20418;-78
2022/10/21 04:52:36;;;;;;;54.55;23.58;;;12.10;99.90;;;;;;4993574;28;20053;-79
2022/10/21 04:55:02;;;;;;;;;;;12.10;99.90;;;;;;5001103;28;20482;-79
2022/10/21 04:57:28;;;;;;;57.20;22.92;;;12.10;99.90;;;;;;5001425;28;19925;-79
2022/10/21 05:00:14;;;;;;;64.03;24.07;;;12.10;99.90;;;;;;4981118;28;20087;-79
2022/10/21 05:02:39;;;;;;;57.55;23.52;;;12.10;99.90;;;;;;4992653;28;20285;-79
2022/10/21 05:05:05;;;;;;;59.53;23.10;;;12.10;99.90;;;;;;4998413;28;20045;-80
2022/10/21 05:07:31;;;;;;;64.80;24.42;;;12.10;99.90;;;;;;4978761;28;20078;-79
2022/10/21 05:09:57;;;;;;;72.47;25.02;;;12.10;99.90;;;;;;4981164;28;20513;-79
2022/10/21 05:12:22;;;;;;;67.33;26.27;;;12.10;99.90;;;;;;4985267;28;20556;-79
2022/10/21 05:14:48;;;;;;;72.47;25.30;;;12.20;99.90;;;;;;4980016;28;20065;-79
2022/10/21 05:17:13;;;;;;;70.07;24.80;;;12.10;99.90;;;;;;4958036;28;20407;-79
2022/10/21 05:19:39;;;;;;;76.03;26.37;;;12.20;99.90;;;;;;5004375;28;20277;-79
2022/10/21 05:22:05;;;;;;;79.83;27.90;;;12.10;99.90;;;;;;4973110;28;20343;-79
2022/10/21 05:24:30;;;;;;;81.55;25.33;;;12.20;99.90;;;;;;5001650;28;20453;-79
2022/10/21 05:26:56;;;;;;;91.32;29.25;;;12.20;99.90;;;;;;4975426;28;20088;-80
2022/10/21 05:29:22;;;;;;;78.67;25.17;;;12.20;99.90;;;;;;4997688;28;20052;-80
2022/10/21 05:31:47;;;;;;;74.37;26.93;;;12.30;99.90;;;;;;4986144;28;20784;-80
2022/10/21 05:34:13;;;;;;;87.67;29.63;;;12.30;99.90;;;;;;4981676;28;20046;-79
2022/10/21 05:36:39;;;;;;;97.20;29.83;;;12.30;99.90;;;;;;4980404;28;20756;-79
2022/10/21 05:39:07;;;;;;;84.10;26.60;;;12.30;99.90;;;;;;5005261;28;20524;-79
2022/10/21 05:41:33;;;;;;;88.60;27.88;;;12.30;99.90;;;;;;4985066;28;20041;-79
2022/10/21 05:43:58;;;;;;;97.40;29.40;;;12.30;99.90;;;;;;4973028;28;20085;-80
2022/10/21 05:46:24;;;;;;;93.20;27.93;;;12.40;99.90;;;;;;4986439;28;20333;-80
2022/10/21 05:48:50;;;;;;;92.67;27.87;;;12.40;99.90;;;;;;4997164;28;20474;-80
2022/10/21 05:51:16;;;;;;;114.17;29.40;;;12.40;99.90;;;;;;4996198;28;20289;-80
2022/10/21 05:53:42;;;;;;;85.90;29.45;;;12.40;99.90;;;;;;4997060;28;20133;-76
2022/10/21 05:56:08;;;;;;;95.13;27.17;;;12.40;99.90;;;;;;4999605;28;20125;-75
2022/10/21 05:58:34;;;;;;;85.20;28.47;;;12.40;99.90;;;;;;5006245;28;20352;-75
2022/10/21 06:01:00;;;;;;;85.70;28.73;;;12.40;99.90;;;;;;4980270;28;20296;-75
2022/10/21 06:03:31;;;;;;;;;;;12.40;99.90;;;;;;4975425;28;20125;-78
2022/10/21 06:06:03;;;;;;;87.10;29.65;;;12.40;99.90;;;;;;4991597;28;19925;-78
2022/10/21 06:08:31;;;;;;;85.32;29.02;;;12.40;99.90;;;;;;4996636;28;20069;-78
2022/10/21 06:11:05;;;;;;;84.68;29.48;;;12.40;99.90;;;;;;4994648;28;20038;-78
2022/10/21 06:13:31;;;;;;;89.70;28.98;;;12.50;99.90;;;;;;5000043;28;20085;-78
2022/10/21 06:15:58;;;;;;;80.50;28.40;;;12.40;99.90;;;;;;4994981;28;20467;-78
2022/10/21 06:18:24;;;;;;;91.93;30.40;;;12.40;99.90;;;;;;4984935;28;20043;-78
2022/10/21 06:20:50;;;;;;;80.57;28.23;;;12.40;99.90;;;;;;4999757;28;20033;-78
2022/10/21 06:23:16;;;;;;;66.18;24.13;;;12.50;99.90;;;;;;5003468;28;20072;-78
2022/10/21 06:25:43;;;;;;;78.90;27.27;;;12.50;99.90;;;;;;4979955;28;20051;-78
2022/10/21 06:28:09;;;;;;;93.70;30.40;;;12.50;99.90;;;;;;4999076;28;20063;-78
2022/10/21 06:30:35;;;;;;;89.43;29.50;;;12.40;99.90;;;;;;4976868;28;20038;-78
2022/10/21 06:33:00;;;;;;;83.65;28.67;;;12.40;99.90;;;;;;5002337;28;20466;-78
2022/10/21 06:35:26;;;;;;;78.67;25.77;;;12.40;99.90;;;;;;4984333;28;20030;-78
2022/10/21 06:37:51;;;;;;;76.33;26.37;;;12.50;99.90;;;;;;4997046;28;20364;-78
2022/10/21 06:40:17;;;;;;;71.43;26.67;;;12.50;99.90;;;;;;4990925;28;20038;-78
2022/10/21 06:42:43;;;;;;;82.70;26.60;;;12.50;99.90;;;;;;4984312;28;20569;-75
2022/10/21 06:45:09;;;;;;;71.27;27.53;;;12.50;99.90;;;;;;4980787;28;20489;-75
2022/10/21 06:47:35;;;;;;;76.40;27.75;;;12.50;99.90;;;;;;5000801;28;20765;-75
2022/10/21 06:50:02;;;;;;;68.43;26.15;;;12.50;99.90;;;;;;4997665;28;20042;-75
2022/10/21 06:52:31;;;;;;;67.18;26.90;;;12.60;99.90;;;;;;4990911;28;20054;-75
2022/10/21 06:54:56;;;;;;;81.65;28.65;;;12.70;99.90;;;;;;4983620;28;20132;-75
2022/10/21 06:57:22;;;;;;;68.88;26.00;;;12.60;99.90;;;;;;4984912;28;20129;-75
2022/10/21 06:59:48;;;;;;;65.20;25.52;;;12.60;99.90;;;;;;5001317;28;20065;-75
2022/10/21 07:02:14;;;;;;;66.50;25.73;;;12.60;99.90;;;;;;4999661;28;20041;-78
2022/10/21 07:04:43;;;;;;;71.83;27.33;;;12.50;99.90;;;;;;4980288;28;20041;-78
2022/10/21 07:07:09;;;;;;;57.55;25.27;;;12.50;99.90;;;;;;4983153;28;20050;-78
2022/10/21 07:09:35;;;;;;;61.53;25.88;;;12.60;99.90;;;;;;4992172;28;20087;-78
2022/10/21 07:12:01;;;;;;;56.70;24.13;;;12.60;99.90;;;;;;4995342;28;20038;-78
2022/10/21 07:14:27;;;;;;;52.47;23.77;;;12.70;99.90;;;;;;5005284;28;20280;-78
2022/10/21 07:16:52;;;;;;;53.00;25.05;;;12.80;99.90;;;;;;4997849;28;20045;-78
2022/10/21 07:19:18;;;;;;;57.75;23.85;;;12.80;99.90;;;;;;4996753;28;20522;-78
2022/10/21 07:21:45;;;;;;;55.65;24.48;;;12.90;99.90;;;;;;4980192;28;20136;-78
2022/10/21 07:24:10;;;;;;;52.85;23.92;;;13.00;99.90;;;;;;4984564;28;20060;-78
2022/10/21 07:26:36;;;;;;;50.28;22.85;;;13.00;99.90;;;;;;4977287;28;20685;-78
2022/10/21 07:29:03;;;;;;;50.70;22.58;;;13.10;99.90;;;;;;5000498;28;20486;-79
2022/10/21 07:31:32;;;;;;;47.25;22.23;;;13.00;99.90;;;;;;4987640;28;20046;-78
2022/10/21 07:34:00;;;;;;;46.22;20.63;;;13.10;99.90;;;;;;5001107;28;20045;-79
2022/10/21 07:36:28;;;;;;;40.58;21.33;;;13.00;99.90;;;;;;4997364;28;20060;-79
2022/10/21 07:38:56;;;;;;;45.85;21.30;;;13.00;99.90;;;;;;4979659;28;20033;-79
2022/10/21 07:41:24;;;;;;;48.10;22.75;;;13.00;99.90;;;;;;4997104;28;20771;-78
2022/10/21 07:43:51;;;;;;;43.85;21.83;;;13.00;99.90;;;;;;5004263;28;20038;-78
2022/10/21 07:46:17;;;;;;;;;;;13.10;99.90;;;;;;4994343;28;20037;-79
2022/10/21 07:48:43;;;;;;;53.33;22.08;;;13.10;99.90;;;;;;5001515;28;20012;-79
2022/10/21 07:51:11;;;;;;;44.15;20.50;;;13.10;99.90;;;;;;4994820;28;20180;-79
2022/10/21 07:53:38;;;;;;;44.30;22.05;;;13.20;99.90;;;;;;4979226;28;21069;-79
2022/10/21 07:56:07;;;;;;;49.15;24.02;;;13.50;99.90;;;;;;4973120;28;20038;-79
2022/10/21 07:58:33;;;;;;;40.88;20.90;;;13.50;99.90;;;;;;4984254;28;20061;-79
2022/10/21 08:01:05;;;;;;;35.30;20.45;;;13.70;99.90;;;;;;4978953;28;20421;-79
2022/10/21 08:03:31;;;;;;;42.75;20.90;;;13.80;99.90;;;;;;4993210;28;20034;-79
2022/10/21 08:05:56;;;;;;;34.58;19.38;;;13.90;99.90;;;;;;4986809;28;20446;-79
2022/10/21 08:08:23;;;;;;;39.83;21.00;;;13.90;99.90;;;;;;4983445;28;20046;-77
2022/10/21 08:10:51;;;;;;;31.00;19.13;;;14.00;99.90;;;;;;5000646;28;20038;-78
2022/10/21 08:13:16;;;;;;;39.22;19.35;;;14.00;99.90;;;;;;4999272;28;20509;-80
2022/10/21 08:15:44;;;;;;;31.10;18.20;;;14.10;99.90;;;;;;5001282;28;20081;-79
2022/10/21 08:18:10;;;;;;;30.40;17.30;;;14.20;99.90;;;;;;5000224;28;20481;-79
2022/10/21 08:20:43;;;;;;;28.83;18.58;;;14.30;99.90;;;;;;4985065;28;20076;-80
2022/10/21 08:23:14;;;;;;;26.90;16.40;;;14.40;99.90;;;;;;4998690;28;20034;-78
2022/10/21 08:25:49;;;;;;;28.67;17.10;;;14.50;99.90;;;;;;4972247;28;20030;-77
2022/10/21 08:28:16;;;;;;;30.00;17.55;;;14.60;99.90;;;;;;4980891;28;20046;-78
2022/10/21 08:30:42;;;;;;;29.20;17.58;;;14.70;99.90;;;;;;5001327;28;20049;-75
2022/10/21 08:33:08;;;;;;;27.30;16.95;;;14.70;99.90;;;;;;4966950;28;20072;-75
2022/10/21 08:35:34;;;;;;;25.83;16.10;;;14.70;99.90;;;;;;5006445;28;20042;-75
2022/10/21 08:37:59;;;;;;;26.52;16.08;;;14.80;99.90;;;;;;4988853;28;20164;-75
2022/10/21 08:40:30;;;;;;;22.85;15.15;;;14.80;99.90;;;;;;4962632;28;20034;-75
2022/10/21 08:43:22;;;;;;;26.15;16.85;;;14.70;99.90;;;;;;4997816;28;20402;-75
2022/10/21 08:45:57;;;;;;;23.67;15.48;;;14.80;99.90;;;;;;5005701;28;20393;-75
2022/10/21 08:48:28;;;;;;;22.02;16.05;;;14.80;99.90;;;;;;4981960;28;20046;-75
2022/10/21 08:50:55;;;;;;;23.40;15.40;;;14.80;99.90;;;;;;4997280;28;20121;-74
2022/10/21 08:53:39;;;;;;;25.70;15.73;;;14.80;99.90;;;;;;5002074;28;20042;-75
2022/10/21 08:56:12;;;;;;;21.33;15.52;;;14.80;99.90;;;;;;5005626;28;20045;-75
2022/10/21 08:58:37;;;;;;;22.55;15.02;;;14.90;99.90;;;;;;4998527;28;20042;-75
2022/10/21 09:01:21;;;;;;;22.42;15.52;;;14.90;99.90;;;;;;5004433;28;20034;-75
2022/10/21 09:03:58;;;;;;;23.38;14.40;;;15.00;99.90;;;;;;4990027;28;20380;-75
2022/10/21 09:06:27;;;;;;;21.40;14.77;;;15.10;99.90;;;;;;4998281;28;20055;-75
2022/10/21 09:09:06;;;;;;;20.77;14.43;;;15.30;99.90;;;;;;4998978;28;20386;-75
2022/10/21 09:11:42;;;;;;;21.10;13.98;;;15.40;99.90;;;;;;5004089;28;20050;-75
2022/10/21 09:14:33;;;;;;;21.30;14.00;;;15.60;99.90;;;;;;5002754;28;20038;-75
2022/10/21 09:17:04;;;;;;;21.15;12.82;;;15.80;99.90;;;;;;5000690;28;20069;-75
2022/10/21 09:20:20;;;;;;;20.42;13.68;;;16.10;99.90;;;;;;4994765;28;20034;-75
2022/10/21 09:23:12;;;;;;;19.50;12.77;;;16.40;99.90;;;;;;4922198;29;20472;-75
2022/10/21 09:26:00;;;;;;;17.05;11.65;;;17.10;99.90;;;;;;4926485;29;20608;-75
2022/10/21 09:28:29;;;;;;;19.70;11.77;;;17.60;99.90;;;;;;5006727;28;20421;-75
2022/10/21 09:30:58;;;;;;;14.48;11.00;;;18.10;99.90;;;;;;5007029;28;20502;-76
2022/10/21 09:33:30;;;;;;;12.60;9.95;;;18.40;99.90;;;;;;4997528;28;20116;-76
2022/10/21 09:36:01;;;;;;;15.13;10.43;;;18.70;99.90;;;;;;5004849;28;20050;-75
2022/10/21 09:38:45;;;;;;;13.43;9.95;;;18.80;99.90;;;;;;5003344;28;20105;-75
2022/10/21 09:41:21;;;;;;;13.13;9.65;;;18.80;99.90;;;;;;5000844;28;20505;-75
2022/10/21 09:43:48;;;;;;;12.03;9.90;;;18.70;99.90;;;;;;5004559;28;20042;-75
2022/10/21 09:46:15;;;;;;;12.27;9.30;;;18.80;99.90;;;;;;4995087;28;20286;-76
2022/10/21 09:48:54;;;;;;;11.63;8.73;;;18.90;99.90;;;;;;4998978;28;20042;-76
2022/10/21 09:51:32;;;;;;;13.38;8.80;;;19.10;99.90;;;;;;5021984;28;20049;-75
2022/10/21 09:54:09;;;;;;;13.10;8.48;;;19.20;99.90;;;;;;5024280;28;20525;-76
2022/10/21 09:56:48;;;;;;;10.30;7.70;;;19.60;99.90;;;;;;4986974;28;20054;-76
2022/10/21 09:59:18;;;;;;;11.85;8.75;;;19.70;99.90;;;;;;4981190;28;20066;-76
2022/10/21 10:01:45;;;;;;;12.20;7.93;;;19.90;99.90;;;;;;4984511;28;20030;-76
2022/10/21 10:04:20;;;;;;;11.70;7.72;;;20.00;99.90;;;;;;5000709;28;20038;-75
2022/10/21 10:06:46;;;;;;;10.30;7.80;;;20.20;99.90;;;;;;5002014;28;20034;-76
2022/10/21 10:09:29;;;;;;;9.77;7.50;;;20.30;99.90;;;;;;4985532;28;20449;-76
2022/10/21 10:12:00;;;;;;;10.25;7.78;;;20.50;99.90;;;;;;5001315;28;20034;-76
2022/10/21 10:14:35;;;;;;;12.60;7.88;;;20.50;99.90;;;;;;5005890;28;20044;-75
2022/10/21 10:17:22;;;;;;;11.27;7.85;;;20.40;99.90;;;;;;4999315;28;20430;-76
2022/10/21 10:20:03;;;;;;;10.15;8.07;;;20.10;99.90;;;;;;4996908;28;20046;-75
2022/10/21 10:22:40;;;;;;;13.00;8.85;;;19.60;99.90;;;;;;4998756;28;20042;-75
2022/10/21 10:25:24;;;;;;;11.85;7.95;;;19.40;99.90;;;;;;4996586;28;20042;-75
2022/10/21 10:28:01;;;;;;;12.52;8.20;;;19.10;99.90;;;;;;4997101;28;20045;-76
2022/10/21 10:30:42;;;;;;;11.85;8.27;;;18.90;99.90;;;;;;4997994;28;20053;-76
2022/10/21 10:33:21;;;;;;;10.70;7.80;;;18.80;99.90;;;;;;4998551;28;20034;-76
2022/10/21 10:35:51;;;;;;;16.02;8.10;;;18.70;99.90;;;;;;5001843;28;20147;-75
2022/10/21 10:38:24;;;;;;;12.38;8.02;;;18.70;99.90;;;;;;4975199;28;20035;-75
2022/10/21 10:40:50;;;;;;;10.60;7.70;;;18.70;99.90;;;;;;4996361;28;20125;-75
2022/10/21 10:43:27;;;;;;;12.27;7.53;;;18.60;99.90;;;;;;4997288;28;20483;-75
2022/10/21 10:45:55;;;;;;;13.63;7.80;;;18.60;99.90;;;;;;5001365;28;20034;-75
2022/10/21 10:48:43;;;;;;;13.75;7.28;;;18.60;99.90;;;;;;4999657;28;20058;-76
2022/10/21 10:51:26;;;;;;;12.95;7.57;;;18.60;99.90;;;;;;4990339;28;20050;-76
2022/10/21 10:54:13;;;;;;;12.07;7.97;;;18.60;99.90;;;;;;4984468;28;20050;-76
2022/10/21 10:56:43;;;;;;;10.93;7.70;;;18.70;99.90;;;;;;5005348;28;20064;-76
2022/10/21 10:59:34;;;;;;;13.57;8.02;;;18.70;99.90;;;;;;4995872;28;20042;-76
2022/10/21 11:02:07;;;;;;;13.40;7.75;;;18.70;99.90;;;;;;5002100;28;20037;-76
2022/10/21 11:04:59;;;;;;;13.98;8.68;;;18.70;99.90;;;;;;5002200;28;20030;-76
2022/10/21 11:07:42;;;;;;;12.52;7.88;;;18.70;99.90;;;;;;5001128;28;20045;-76
2022/10/21 11:10:31;;;;;;;14.32;8.32;;;18.70;99.90;;;;;;5002118;28;20030;-76
2022/10/21 11:12:59;;;;;;;14.00;8.32;;;18.70;99.90;;;;;;5003173;28;20116;-76
2022/10/21 11:16:04;;;;;;;10.75;7.28;;;18.70;99.90;;;;;;4999296;28;20042;-76
2022/10/21 11:18:46;;;;;;;11.18;7.10;;;18.80;99.90;;;;;;4967528;28;20552;-76
2022/10/21 11:21:47;;;;;;;9.88;6.82;;;18.90;99.90;;;;;;4977247;28;20486;-76
2022/10/21 11:24:40;;;;;;;9.10;6.15;;;18.90;99.90;;;;;;4968253;28;20104;-75
2022/10/21 11:27:18;;;;;;;9.00;6.30;;;18.90;99.90;;;;;;4979766;28;20081;-76
2022/10/21 11:29:59;;;;;;;11.82;6.57;;;18.80;99.90;;;;;;4993395;28;20125;-76
2022/10/21 11:32:44;;;;;;;8.43;6.05;;;18.70;99.90;;;;;;4999768;28;20042;-76
2022/10/21 11:35:19;;;;;;;10.00;6.55;;;18.70;99.90;;;;;;5000455;28;20046;-76
2022/10/21 11:37:48;;;;;;;8.25;5.63;;;18.70;99.90;;;;;;5004183;28;20514;-75
2022/10/21 11:40:24;;;;;;;11.20;6.35;;;18.70;99.90;;;;;;5002435;28;20073;-76
2022/10/21 11:42:52;;;;;;;12.40;6.03;;;18.70;99.90;;;;;;4997105;28;20125;-77
2022/10/21 11:45:18;;;;;;;10.68;6.15;;;18.70;99.90;;;;;;5008869;28;20038;-77
2022/10/21 11:47:59;;;;;;;12.43;6.53;;;18.70;99.90;;;;;;5007412;28;20490;-76
2022/10/21 11:50:58;;;;;;;8.95;5.80;;;18.60;99.90;;;;;;5000733;28;20054;-80
2022/10/21 11:53:42;;;;;;;9.27;6.07;;;18.70;99.90;;;;;;4997906;28;20461;-80
2022/10/21 11:56:31;;;;;;;11.27;5.93;;;18.70;99.90;;;;;;5002294;28;20037;-80
2022/10/21 11:59:09;;;;;;;10.10;5.60;;;18.60;99.90;;;;;;4998900;28;20125;-81
2022/10/21 12:01:45;;;;;;;9.85;5.90;;;18.50;99.90;;;;;;4989423;28;20046;-81
2022/10/21 12:04:33;;;;;;;9.18;5.40;;;18.30;99.90;;;;;;4984633;28;20038;-81
2022/10/21 12:07:20;;;;;;;12.13;5.70;;;18.30;99.90;;;;;;5002448;28;20073;-81
2022/10/21 12:09:55;;;;;;;11.18;5.38;;;18.20;99.90;;;;;;5002451;28;20073;-81
2022/10/21 12:12:34;;;;;;;11.20;6.00;;;18.20;99.90;;;;;;4980274;28;20225;-82
2022/10/21 12:15:01;;;;;;;10.68;6.00;;;18.20;99.90;;;;;;4984629;28;20092;-82
2022/10/21 12:17:30;;;;;;;11.15;5.68;;;18.20;99.90;;;;;;4987202;28;20394;-82
2022/10/21 12:19:59;;;;;;;8.82;5.65;;;18.20;99.90;;;;;;5002256;28;20034;-82
2022/10/21 12:22:27;;;;;;;8.82;6.18;;;18.20;99.90;;;;;;4983079;28;20128;-83
2022/10/21 12:25:11;;;;;;;10.90;5.47;;;18.30;99.90;;;;;;4979663;28;20073;-83
2022/10/21 12:28:03;;;;;;;11.18;6.07;;;18.30;99.90;;;;;;4998728;28;20057;-82
2022/10/21 12:30:37;;;;;;;10.73;5.70;;;18.20;99.90;;;;;;4984319;28;20042;-82
2022/10/21 12:33:11;;;;;;;10.90;5.45;;;18.20;99.90;;;;;;4994281;28;20463;-82
2022/10/21 12:35:52;;;;;;;10.65;5.40;;;18.30;99.90;;;;;;4979341;28;20559;-82
2022/10/21 12:38:23;;;;;;;10.30;5.88;;;18.30;99.90;;;;;;5000817;28;20478;-82
2022/10/21 12:40:50;;;;;;;10.70;5.38;;;18.20;99.90;;;;;;4996752;28;20030;-82
2022/10/21 12:43:26;;;;;;;8.57;5.40;;;18.20;99.90;;;;;;5003666;28;20076;-82
2022/10/21 12:46:07;;;;;;;9.20;5.85;;;18.20;99.90;;;;;;5007900;28;20517;-81
2022/10/21 12:48:38;;;;;;;10.13;5.10;;;18.20;99.90;;;;;;4979901;28;20088;-81
2022/10/21 12:51:20;;;;;;;10.50;5.75;;;18.10;99.90;;;;;;5001518;28;20210;-81